createdAt,value
2018-10-01T00:01:15.586Z,5.63
2018-10-01T00:03:44.284Z,5.30
2018-10-01T00:06:13.669Z,5.40
2018-10-01T00:08:42.265Z,6.77
2018-10-01T00:11:11.018Z,6.27
2018-10-01T00:13:39.621Z,5.70
2018-10-01T00:16:08.229Z,6.07
2018-10-01T00:18:37.094Z,5.97
2018-10-01T00:21:11.044Z,5.53
2018-10-01T00:23:39.628Z,5.73
2018-10-01T00:26:08.296Z,5.57
2018-10-01T00:28:36.968Z,6.13
2018-10-01T00:31:05.787Z,6.00
2018-10-01T00:33:34.949Z,6.57
2018-10-01T00:36:03.552Z,6.30
2018-10-01T00:38:32.246Z,6.37
2018-10-01T00:41:00.806Z,5.93
2018-10-01T00:43:29.466Z,5.80
2018-10-01T00:45:58.116Z,6.47
2018-10-01T00:48:26.710Z,6.57
2018-10-01T00:50:55.948Z,6.63
2018-10-01T00:53:24.504Z,6.77
2018-10-01T00:55:53.047Z,6.33
2018-10-01T00:58:21.654Z,5.80
2018-10-01T01:00:50.233Z,6.23
2018-10-01T01:03:18.788Z,6.30
2018-10-01T01:05:47.440Z,7.10
2018-10-01T01:08:16.030Z,5.53
2018-10-01T01:10:44.633Z,6.40
2018-10-01T01:13:13.273Z,6.00
2018-10-01T01:15:42.020Z,6.20
2018-10-01T01:18:10.618Z,5.80
2018-10-01T01:20:39.193Z,6.33
2018-10-01T01:23:08.026Z,5.80
2018-10-01T01:25:36.581Z,4.87
2018-10-01T01:28:05.213Z,6.00
2018-10-01T01:30:33.862Z,5.70
2018-10-01T01:33:02.553Z,5.93
2018-10-01T01:35:31.128Z,5.43
2018-10-01T01:37:59.691Z,5.40
2018-10-01T01:40:28.265Z,5.57
2018-10-01T01:42:56.853Z,5.63
2018-10-01T01:45:25.402Z,5.53
2018-10-01T01:47:54.047Z,5.50
2018-10-01T01:50:23.365Z,5.67
2018-10-01T01:52:51.958Z,5.03
2018-10-01T01:55:20.576Z,5.90
2018-10-01T01:57:49.322Z,6.03
2018-10-01T02:00:17.909Z,5.50
2018-10-01T02:02:46.459Z,5.73
2018-10-01T02:05:14.984Z,5.60
2018-10-01T02:07:44.264Z,5.03
2018-10-01T02:10:12.844Z,5.20
2018-10-01T02:12:41.682Z,4.87
2018-10-01T02:15:10.222Z,5.90
2018-10-01T02:17:39.496Z,4.80
2018-10-01T02:20:08.278Z,5.17
2018-10-01T02:22:36.866Z,5.27
2018-10-01T02:25:05.925Z,5.80
2018-10-01T02:27:34.535Z,6.57
2018-10-01T02:30:03.187Z,5.23
2018-10-01T02:32:31.859Z,5.03
2018-10-01T02:35:00.419Z,4.90
2018-10-01T02:37:28.997Z,5.63
2018-10-01T02:39:57.562Z,6.80
2018-10-01T02:42:26.135Z,5.63
2018-10-01T02:44:54.713Z,5.37
2018-10-01T02:47:23.272Z,5.23
2018-10-01T02:49:52.216Z,5.43
2018-10-01T02:52:26.285Z,5.53
2018-10-01T02:54:55.357Z,5.30
2018-10-01T02:57:24.122Z,5.63
2018-10-01T02:59:52.666Z,5.40
2018-10-01T03:02:21.359Z,5.50
2018-10-01T03:04:49.905Z,5.13
2018-10-01T03:07:18.460Z,4.63
2018-10-01T03:09:47.176Z,4.97
2018-10-01T03:12:15.715Z,5.20
2018-10-01T03:14:44.223Z,5.30
2018-10-01T03:17:13.095Z,4.93
2018-10-01T03:19:41.871Z,5.47
2018-10-01T03:22:10.417Z,4.50
2018-10-01T03:24:39.040Z,6.00
2018-10-01T03:27:07.594Z,5.60
2018-10-01T03:29:36.147Z,4.70
2018-10-01T03:32:04.760Z,4.40
2018-10-01T03:34:33.423Z,5.50
2018-10-01T03:37:04.831Z,4.60
2018-10-01T03:39:33.363Z,5.47
2018-10-01T03:42:01.916Z,6.87
2018-10-01T03:44:30.477Z,5.13
2018-10-01T03:46:59.171Z,5.33
2018-10-01T03:49:27.742Z,4.33
2018-10-01T03:51:56.274Z,4.50
2018-10-01T03:54:24.959Z,4.50
2018-10-01T03:56:54.274Z,5.50
2018-10-01T03:59:23.016Z,4.13
2018-10-01T04:01:52.010Z,4.60
2018-10-01T04:04:20.698Z,5.03
2018-10-01T04:06:49.263Z,4.80
2018-10-01T04:09:17.878Z,4.40
2018-10-01T04:11:46.551Z,4.60
2018-10-01T04:14:15.209Z,4.80
2018-10-01T04:16:43.739Z,5.03
2018-10-01T04:19:12.421Z,5.07
2018-10-01T04:21:40.947Z,4.00
2018-10-01T04:24:09.506Z,4.87
2018-10-01T04:26:38.173Z,4.50
2018-10-01T04:29:07.161Z,4.60
2018-10-01T04:31:35.862Z,4.87
2018-10-01T04:34:04.438Z,4.50
2018-10-01T04:36:33.012Z,5.27
2018-10-01T04:39:01.649Z,5.70
2018-10-01T04:41:30.212Z,3.70
2018-10-01T04:43:59.107Z,5.20
2018-10-01T04:46:27.690Z,4.77
2018-10-01T04:48:56.285Z,4.10
2018-10-01T04:51:24.828Z,4.73
2018-10-01T04:53:53.409Z,4.20
2018-10-01T04:56:22.179Z,5.50
2018-10-01T04:58:50.758Z,4.90
2018-10-01T05:01:19.391Z,5.50
2018-10-01T05:03:47.993Z,4.30
2018-10-01T05:06:16.677Z,4.50
2018-10-01T05:08:45.371Z,5.50
2018-10-01T05:11:14.105Z,4.73
2018-10-01T05:13:43.395Z,4.97
2018-10-01T05:16:12.177Z,4.30
2018-10-01T05:18:40.765Z,4.60
2018-10-01T05:21:09.393Z,4.80
2018-10-01T05:23:38.378Z,7.33
2018-10-01T05:26:07.016Z,4.40
2018-10-01T05:28:35.604Z,4.60
2018-10-01T05:31:04.199Z,4.40
2018-10-01T05:33:32.725Z,4.23
2018-10-01T05:36:01.297Z,4.93
2018-10-01T05:38:29.969Z,4.80
2018-10-01T05:40:58.634Z,4.80
2018-10-01T05:43:27.214Z,5.80
2018-10-01T05:45:56.907Z,4.47
2018-10-01T05:48:25.559Z,4.00
2018-10-01T05:50:54.898Z,5.23
2018-10-01T05:53:23.461Z,4.90
2018-10-01T05:55:52.189Z,4.27
2018-10-01T05:58:20.768Z,4.40
2018-10-01T06:00:49.494Z,4.60
2018-10-01T06:03:18.272Z,4.40
2018-10-01T06:05:46.928Z,5.00
2018-10-01T06:08:15.797Z,4.97
2018-10-01T06:10:44.713Z,4.57
2018-10-01T06:13:13.464Z,4.17
2018-10-01T06:15:42.846Z,3.20
2018-10-01T06:18:11.639Z,3.87
2018-10-01T06:20:40.285Z,3.97
2018-10-01T06:23:08.916Z,4.67
2018-10-01T06:25:37.460Z,4.00
2018-10-01T06:28:06.016Z,4.37
2018-10-01T06:30:34.696Z,5.70
2018-10-01T06:33:03.281Z,3.80
2018-10-01T06:35:32.593Z,3.90
2018-10-01T06:38:01.564Z,6.40
2018-10-01T06:40:30.160Z,4.63
2018-10-01T06:42:58.864Z,4.40
2018-10-01T06:45:27.575Z,3.60
2018-10-01T06:47:56.790Z,3.70
2018-10-01T06:50:25.395Z,3.70
2018-10-01T06:52:54.041Z,4.50
2018-10-01T06:55:22.629Z,3.33
2018-10-01T06:57:51.295Z,3.20
2018-10-01T07:00:19.946Z,3.30
2018-10-01T07:02:48.496Z,3.10
2018-10-01T07:05:17.071Z,3.70
2018-10-01T07:07:45.817Z,3.27
2018-10-01T07:10:14.447Z,3.93
2018-10-01T07:12:43.137Z,3.17
2018-10-01T07:15:11.666Z,2.63
2018-10-01T07:17:40.208Z,2.43
2018-10-01T07:20:08.811Z,2.43
2018-10-01T07:22:37.418Z,3.20
2018-10-01T07:25:06.029Z,2.67
2018-10-01T07:27:34.599Z,2.93
2018-10-01T07:30:03.213Z,2.80
2018-10-01T07:32:31.750Z,2.50
2018-10-01T07:35:00.348Z,1.87
2018-10-01T07:37:29.015Z,2.10
2018-10-01T07:39:57.800Z,2.33
2018-10-01T07:42:26.376Z,2.57
2018-10-01T07:44:55.033Z,3.10
2018-10-01T07:47:23.598Z,3.83
2018-10-01T07:49:52.273Z,2.90
2018-10-01T07:52:20.851Z,2.80
2018-10-01T07:54:49.808Z,2.00
2018-10-01T07:57:18.422Z,2.50
2018-10-01T07:59:47.177Z,2.50
2018-10-01T08:02:15.757Z,1.97
2018-10-01T08:04:44.307Z,1.97
2018-10-01T08:07:13.022Z,1.40
2018-10-01T08:09:41.784Z,1.93
2018-10-01T08:12:10.439Z,1.60
2018-10-01T08:14:39.221Z,1.70
2018-10-01T08:17:07.863Z,1.97
2018-10-01T08:19:37.128Z,2.27
2018-10-01T08:22:05.717Z,1.90
2018-10-01T08:24:34.824Z,1.93
2018-10-01T08:27:03.487Z,2.03
2018-10-01T08:29:32.180Z,1.77
2018-10-01T08:32:02.210Z,1.47
2018-10-01T08:34:30.822Z,2.07
2018-10-01T08:36:59.412Z,1.50
2018-10-01T08:39:28.042Z,1.70
2018-10-01T08:41:56.708Z,1.20
2018-10-01T08:44:25.534Z,2.30
2018-10-01T08:46:54.138Z,2.10
2018-10-01T08:49:30.239Z,1.40
2018-10-01T08:54:06.689Z,1.30
2018-10-01T08:56:35.396Z,1.90
2018-10-01T08:59:04.004Z,0.90
2018-10-01T09:01:32.653Z,1.43
2018-10-01T09:04:01.973Z,1.73
2018-10-01T09:06:30.525Z,2.30
2018-10-01T09:08:59.153Z,1.40
2018-10-01T09:11:27.760Z,1.10
2018-10-01T09:13:56.339Z,1.50
2018-10-01T09:16:25.072Z,1.73
2018-10-01T09:18:54.402Z,1.20
2018-10-01T09:21:23.007Z,1.77
2018-10-01T09:23:51.586Z,0.90
2018-10-01T09:26:20.379Z,1.43
2018-10-01T09:28:49.284Z,2.93
2018-10-01T09:31:18.126Z,1.77
2018-10-01T09:33:46.811Z,2.53
2018-10-01T09:36:15.425Z,3.90
2018-10-01T09:38:44.028Z,3.00
2018-10-01T09:41:12.717Z,2.07
2018-10-01T09:43:41.981Z,1.80
2018-10-01T09:46:10.692Z,1.43
2018-10-01T09:48:39.381Z,1.27
2018-10-01T09:51:08.746Z,1.50
2018-10-01T09:53:37.452Z,1.83
2018-10-01T09:56:06.508Z,1.70
2018-10-01T09:58:35.259Z,1.60
2018-10-01T10:01:12.242Z,1.57
2018-10-01T10:03:40.952Z,1.93
2018-10-01T10:06:10.075Z,1.80
2018-10-01T10:08:39.511Z,0.97
2018-10-01T10:11:08.093Z,1.43
2018-10-01T10:13:36.930Z,1.67
2018-10-01T10:16:05.684Z,1.23
2018-10-01T10:18:34.401Z,1.20
2018-10-01T10:21:03.090Z,1.13
2018-10-01T10:23:31.788Z,0.80
2018-10-01T10:26:00.475Z,1.43
2018-10-01T10:28:29.944Z,1.60
2018-10-01T10:30:58.431Z,1.30
2018-10-01T10:33:27.114Z,1.00
2018-10-01T10:35:57.029Z,1.50
2018-10-01T10:38:25.845Z,1.00
2018-10-01T10:40:54.560Z,1.33
2018-10-01T10:43:23.168Z,1.00
2018-10-01T10:45:52.756Z,1.77
2018-10-01T10:48:21.402Z,1.20
2018-10-01T10:50:50.233Z,1.03
2018-10-01T10:53:18.850Z,0.73
2018-10-01T10:55:47.556Z,1.23
2018-10-01T10:58:16.157Z,0.60
2018-10-01T11:00:44.723Z,0.87
2018-10-01T11:03:13.471Z,0.70
2018-10-01T11:05:42.159Z,0.87
2018-10-01T11:08:10.881Z,1.20
2018-10-01T11:10:39.664Z,0.50
2018-10-01T11:13:08.295Z,0.70
2018-10-01T11:15:36.985Z,0.87
2018-10-01T11:18:05.670Z,1.23
2018-10-01T11:20:34.231Z,0.80
2018-10-01T11:23:02.835Z,0.43
2018-10-01T11:25:31.718Z,0.73
2018-10-01T11:28:00.479Z,1.13
2018-10-01T11:30:29.080Z,0.50
2018-10-01T11:32:57.923Z,0.83
2018-10-01T11:35:26.593Z,1.00
2018-10-01T11:37:55.293Z,0.77
2018-10-01T11:40:23.990Z,0.40
2018-10-01T11:42:52.645Z,0.57
2018-10-01T11:45:21.260Z,0.60
2018-10-01T11:47:49.774Z,0.73
2018-10-01T11:50:18.347Z,0.77
2018-10-01T11:52:47.659Z,0.83
2018-10-01T11:55:16.198Z,0.80
2018-10-01T11:57:45.065Z,1.30
2018-10-01T12:00:16.433Z,0.80
2018-10-01T12:02:45.465Z,1.10
2018-10-01T12:05:14.235Z,0.83
2018-10-01T12:07:43.793Z,0.70
2018-10-01T12:10:12.669Z,0.90
2018-10-01T12:12:41.308Z,1.73
2018-10-01T12:15:09.953Z,1.10
2018-10-01T12:17:38.562Z,2.17
2018-10-01T12:20:07.710Z,3.87
2018-10-01T12:22:36.300Z,1.37
2018-10-01T12:25:05.366Z,1.60
2018-10-01T12:27:33.943Z,0.90
2018-10-01T12:30:02.504Z,1.20
2018-10-01T12:32:31.114Z,1.00
2018-10-01T12:34:59.813Z,1.23
2018-10-01T12:37:28.410Z,1.63
2018-10-01T12:39:57.018Z,1.23
2018-10-01T12:42:25.817Z,1.67
2018-10-01T12:44:55.101Z,1.57
2018-10-01T12:47:23.772Z,0.97
2018-10-01T12:49:52.389Z,1.43
2018-10-01T12:52:21.131Z,1.37
2018-10-01T12:54:49.745Z,1.27
2018-10-01T12:57:18.469Z,1.13
2018-10-01T12:59:47.052Z,1.10
2018-10-01T13:02:15.673Z,1.57
2018-10-01T13:04:44.304Z,1.77
2018-10-01T13:07:12.955Z,1.57
2018-10-01T13:09:41.615Z,1.57
2018-10-01T13:12:10.294Z,1.60
2018-10-01T13:14:39.083Z,1.50
2018-10-01T13:17:08.804Z,1.27
2018-10-01T13:19:37.422Z,1.43
2018-10-01T13:22:06.521Z,1.40
2018-10-01T13:24:35.169Z,1.43
2018-10-01T13:27:03.948Z,1.70
2018-10-01T13:29:32.588Z,1.40
2018-10-01T13:32:01.567Z,2.33
2018-10-01T13:34:30.099Z,2.03
2018-10-01T13:36:59.606Z,1.60
2018-10-01T13:39:28.196Z,1.43
2018-10-01T13:41:56.861Z,1.90
2018-10-01T13:44:25.479Z,1.20
2018-10-01T13:46:54.196Z,2.63
2018-10-01T13:49:23.565Z,1.90
2018-10-01T13:51:52.221Z,2.10
2018-10-01T13:54:20.995Z,1.50
2018-10-01T13:56:49.693Z,1.80
2018-10-01T13:59:18.296Z,1.67
2018-10-01T14:01:46.987Z,2.03
2018-10-01T14:04:15.582Z,2.00
2018-10-01T14:06:44.218Z,2.27
2018-10-01T14:09:13.071Z,2.40
2018-10-01T14:11:41.857Z,2.77
2018-10-01T14:14:10.461Z,2.20
2018-10-01T14:16:39.065Z,4.07
2018-10-01T14:19:07.700Z,2.30
2018-10-01T14:21:36.207Z,2.03
2018-10-01T14:24:06.120Z,1.90
2018-10-01T14:26:34.773Z,3.23
2018-10-01T14:29:04.722Z,2.10
2018-10-01T14:31:33.335Z,3.30
2018-10-01T14:34:01.897Z,2.23
2018-10-01T14:36:30.563Z,2.63
2018-10-01T14:38:59.187Z,1.87
2018-10-01T14:41:28.093Z,1.20
2018-10-01T14:43:57.467Z,0.87
2018-10-01T14:46:26.115Z,1.80
2018-10-01T14:48:54.799Z,1.73
2018-10-01T14:51:23.594Z,1.30
2018-10-01T14:53:52.447Z,1.10
2018-10-01T14:56:21.043Z,0.80
2018-10-01T14:58:50.413Z,1.20
2018-10-01T15:01:19.117Z,1.30
2018-10-01T15:03:47.852Z,0.90
2018-10-01T15:06:16.657Z,1.37
2018-10-01T15:08:45.569Z,1.07
2018-10-01T15:11:14.951Z,2.30
2018-10-01T15:13:43.696Z,1.23
2018-10-01T15:16:12.564Z,1.40
2018-10-01T15:18:42.394Z,0.70
2018-10-01T15:21:10.964Z,0.80
2018-10-01T15:23:39.605Z,0.33
2018-10-01T15:26:08.370Z,0.30
2018-10-01T15:28:38.263Z,0.63
2018-10-01T15:31:07.139Z,0.33
2018-10-01T15:33:35.791Z,1.00
2018-10-01T15:36:04.454Z,0.93
2018-10-01T15:38:33.125Z,0.60
2018-10-01T15:41:02.452Z,0.60
2018-10-01T15:43:31.170Z,0.80
2018-10-01T15:45:59.917Z,0.87
2018-10-01T15:48:28.529Z,1.00
2018-10-01T15:50:57.808Z,0.60
2018-10-01T15:53:26.362Z,0.90
2018-10-01T15:55:55.008Z,0.90
2018-10-01T15:58:23.748Z,0.80
2018-10-01T16:00:52.358Z,1.03
2018-10-01T16:03:21.143Z,1.13
2018-10-01T16:05:49.786Z,1.10
2018-10-01T16:08:18.513Z,1.47
2018-10-01T16:10:47.280Z,1.13
2018-10-01T16:13:15.891Z,1.23
2018-10-01T16:15:45.621Z,1.20
2018-10-01T16:18:15.090Z,1.17
2018-10-01T16:20:43.919Z,1.10
2018-10-01T16:23:12.659Z,0.87
2018-10-01T16:25:41.515Z,1.47
2018-10-01T16:28:10.128Z,2.60
2018-10-01T16:30:38.947Z,1.60
2018-10-01T16:33:07.565Z,1.57
2018-10-01T16:35:36.171Z,1.77
2018-10-01T16:38:04.831Z,1.90
2018-10-01T16:40:33.496Z,1.50
2018-10-01T16:43:02.203Z,2.00
2018-10-01T16:45:30.794Z,1.70
2018-10-01T16:47:59.628Z,1.27
2018-10-01T16:50:28.362Z,1.80
2018-10-01T16:52:57.507Z,1.90
2018-10-01T16:55:26.823Z,1.60
2018-10-01T16:57:55.398Z,1.50
2018-10-01T17:00:24.867Z,1.83
2018-10-01T17:02:54.400Z,1.73
2018-10-01T17:05:22.960Z,1.73
2018-10-01T17:07:51.828Z,2.13
2018-10-01T17:10:20.469Z,1.80
2018-10-01T17:12:49.316Z,3.47
2018-10-01T17:15:17.921Z,1.73
2018-10-01T17:17:46.617Z,2.10
2018-10-01T17:20:15.165Z,1.60
2018-10-01T17:22:44.470Z,2.20
2018-10-01T17:25:13.065Z,2.00
2018-10-01T17:27:41.648Z,1.90
2018-10-01T17:30:10.523Z,1.43
2018-10-01T17:32:39.118Z,1.10
2018-10-01T17:35:07.854Z,1.03
2018-10-01T17:37:36.442Z,0.90
2018-10-01T17:40:05.125Z,0.80
2018-10-01T17:42:33.720Z,0.90
2018-10-01T17:45:02.252Z,0.97
2018-10-01T17:47:30.918Z,1.40
2018-10-01T17:49:59.465Z,1.47
2018-10-01T17:52:28.032Z,1.60
2018-10-01T17:54:56.591Z,1.83
2018-10-01T17:57:25.413Z,1.47
2018-10-01T17:59:54.020Z,1.60
2018-10-01T18:02:22.621Z,1.03
2018-10-01T18:04:51.196Z,1.43
2018-10-01T18:07:20.447Z,1.80
2018-10-01T18:09:48.983Z,1.50
2018-10-01T18:12:18.398Z,1.10
2018-10-01T18:14:47.183Z,1.23
2018-10-01T18:17:15.785Z,1.20
2018-10-01T18:19:44.337Z,1.37
2018-10-01T18:22:12.875Z,0.87
2018-10-01T18:24:41.478Z,1.73
2018-10-01T18:27:10.038Z,1.53
2018-10-01T18:29:38.727Z,1.37
2018-10-01T18:32:07.667Z,2.00
2018-10-01T18:34:36.189Z,1.60
2018-10-01T18:37:04.760Z,2.70
2018-10-01T18:39:33.577Z,2.00
2018-10-01T18:42:02.182Z,1.90
2018-10-01T18:44:30.752Z,1.40
2018-10-01T18:46:59.620Z,2.20
2018-10-01T18:49:28.653Z,1.80
2018-10-01T18:51:57.213Z,1.70
2018-10-01T18:54:25.872Z,1.10
2018-10-01T18:56:54.402Z,1.60
2018-10-01T18:59:22.942Z,1.60
2018-10-01T19:01:51.541Z,1.50
2018-10-01T19:04:20.109Z,1.60
2018-10-01T19:06:48.748Z,1.77
2018-10-01T19:09:17.372Z,1.40
2018-10-01T19:11:45.979Z,2.10
2018-10-01T19:14:14.492Z,1.70
2018-10-01T19:16:43.188Z,2.43
2018-10-01T19:19:11.774Z,2.10
2018-10-01T19:21:41.376Z,2.50
2018-10-01T19:24:10.021Z,1.90
2018-10-01T19:26:38.802Z,2.30
2018-10-01T19:29:07.540Z,2.47
2018-10-01T19:31:36.929Z,2.60
2018-10-01T19:34:05.479Z,2.17
2018-10-01T19:36:34.228Z,1.80
2018-10-01T19:39:03.063Z,2.47
2018-10-01T19:41:31.731Z,2.70
2018-10-01T19:44:00.353Z,3.03
2018-10-01T19:46:28.987Z,2.30
2018-10-01T19:48:57.696Z,2.33
2018-10-01T19:51:26.282Z,2.83
2018-10-01T19:53:55.057Z,3.03
2018-10-01T19:56:23.600Z,2.63
2018-10-01T19:58:52.707Z,3.27
2018-10-01T20:01:21.338Z,2.30
2018-10-01T20:03:50.029Z,2.50
2018-10-01T20:06:18.802Z,2.50
2018-10-01T20:08:47.536Z,2.60
2018-10-01T20:11:16.391Z,3.10
2018-10-01T20:13:45.030Z,3.30
2018-10-01T20:16:13.673Z,3.62
2018-10-01T20:18:42.554Z,2.80
2018-10-01T20:21:11.294Z,2.53
2018-10-01T20:23:39.934Z,2.90
2018-10-01T20:26:08.506Z,2.70
2018-10-01T20:28:37.451Z,3.43
2018-10-01T20:31:05.752Z,2.47
2018-10-01T20:33:34.910Z,2.97
2018-10-01T20:36:04.761Z,3.07
2018-10-01T20:38:33.253Z,4.50
2018-10-01T20:41:02.087Z,3.30
2018-10-01T20:43:31.248Z,3.23
2018-10-01T20:45:59.873Z,3.70
2018-10-01T20:48:29.225Z,3.43
2018-10-01T20:50:57.749Z,3.03
2018-10-01T20:53:26.662Z,2.63
2018-10-01T20:55:55.389Z,3.27
2018-10-01T20:58:24.830Z,2.80
2018-10-01T21:00:53.477Z,2.90
2018-10-01T21:03:22.940Z,2.73
2018-10-01T21:05:51.581Z,2.93
2018-10-01T21:08:20.182Z,3.13
2018-10-01T21:10:48.776Z,3.10
2018-10-01T21:13:18.931Z,2.93
2018-10-01T21:15:47.875Z,3.57
2018-10-01T21:18:16.429Z,2.50
2018-10-01T21:20:45.310Z,2.47
2018-10-01T21:23:15.153Z,3.10
2018-10-01T21:25:43.890Z,2.57
2018-10-01T21:28:13.208Z,3.03
2018-10-01T21:30:42.111Z,2.47
2018-10-01T21:33:11.872Z,2.77
2018-10-01T21:35:41.669Z,2.60
2018-10-01T21:38:10.472Z,2.47
2018-10-01T21:40:39.888Z,3.60
2018-10-01T21:43:08.546Z,2.47
2018-10-01T21:45:37.099Z,2.70
2018-10-01T21:48:13.172Z,2.40
2018-10-01T21:50:42.426Z,3.17
2018-10-01T21:53:12.128Z,2.60
2018-10-01T21:55:40.708Z,2.90
2018-10-01T21:58:09.681Z,2.60
2018-10-01T22:00:43.829Z,2.67
2018-10-01T22:03:12.424Z,2.60
2018-10-01T22:05:41.023Z,2.67
2018-10-01T22:08:09.613Z,2.73
2018-10-01T22:10:38.494Z,3.00
2018-10-01T22:13:07.939Z,2.70
2018-10-01T22:15:41.767Z,4.47
2018-10-01T22:18:10.312Z,2.40
2018-10-01T22:20:39.472Z,2.70
2018-10-01T22:23:08.084Z,2.30
2018-10-01T22:25:36.700Z,2.60
2018-10-01T22:28:05.617Z,3.10
2018-10-01T22:30:34.164Z,3.30
2018-10-01T22:33:02.732Z,2.93
2018-10-01T22:35:31.285Z,3.10
2018-10-01T22:37:59.868Z,2.70
2018-10-01T22:40:28.528Z,2.50
2018-10-01T22:42:57.221Z,2.87
2018-10-01T22:45:25.739Z,2.67
2018-10-01T22:47:54.368Z,2.67
2018-10-01T22:50:23.002Z,2.87
2018-10-01T22:52:51.808Z,2.30
2018-10-01T22:55:21.459Z,3.50
2018-10-01T22:57:50.158Z,2.70
2018-10-01T23:00:18.864Z,2.43
2018-10-01T23:02:47.475Z,2.90
2018-10-01T23:05:16.022Z,2.60
2018-10-01T23:07:45.591Z,2.40
2018-10-01T23:10:14.154Z,2.53
2018-10-01T23:12:42.817Z,3.10
2018-10-01T23:15:11.457Z,3.17
2018-10-01T23:17:40.011Z,3.23
2018-10-01T23:20:09.814Z,2.43
2018-10-01T23:22:38.389Z,2.83
2018-10-01T23:25:07.331Z,2.90
2018-10-01T23:27:35.929Z,2.90
2018-10-01T23:30:04.570Z,2.40
2018-10-01T23:32:33.110Z,2.70
2018-10-01T23:35:01.662Z,2.53
2018-10-01T23:37:30.659Z,2.60
2018-10-01T23:39:59.214Z,2.43
2018-10-01T23:42:27.746Z,2.50
2018-10-01T23:44:56.439Z,2.27
2018-10-01T23:47:25.014Z,3.90
2018-10-01T23:49:53.677Z,2.37
2018-10-01T23:52:22.285Z,2.90
2018-10-01T23:54:51.374Z,2.63
2018-10-01T23:57:19.974Z,2.70
2018-10-01T23:59:48.518Z,3.17
